createdAt,value
2017-11-29T00:00:10.397Z,99.99
2017-11-29T00:01:10.387Z,99.99
2017-11-29T00:02:10.377Z,99.99
2017-11-29T00:03:10.367Z,99.99
2017-11-29T00:04:10.356Z,99.99
2017-11-29T00:05:10.351Z,99.99
2017-11-29T00:06:10.342Z,99.99
2017-11-29T00:07:10.330Z,99.99
2017-11-29T00:08:10.322Z,99.99
2017-11-29T00:09:10.311Z,99.99
2017-11-29T00:10:10.301Z,99.99
2017-11-29T00:11:10.291Z,99.99
2017-11-29T00:12:10.280Z,99.99
2017-11-29T00:13:10.266Z,99.99
2017-11-29T00:14:10.257Z,99.99
2017-11-29T00:15:10.246Z,99.99
2017-11-29T00:16:10.236Z,99.99
2017-11-29T00:17:10.228Z,99.99
2017-11-29T00:18:10.219Z,99.99
2017-11-29T00:19:10.207Z,99.99
2017-11-29T00:20:10.200Z,99.99
2017-11-29T00:21:10.190Z,99.99
2017-11-29T00:22:10.181Z,99.99
2017-11-29T00:23:10.170Z,99.99
2017-11-29T00:24:10.165Z,99.99
2017-11-29T00:25:10.150Z,99.99
2017-11-29T00:26:10.141Z,99.99
2017-11-29T00:27:10.130Z,99.99
2017-11-29T00:28:10.121Z,99.99
2017-11-29T00:29:10.118Z,99.99
2017-11-29T00:30:10.097Z,99.99
2017-11-29T00:31:10.086Z,99.99
2017-11-29T00:32:10.075Z,99.99
2017-11-29T00:33:10.066Z,99.99
2017-11-29T00:34:10.056Z,99.99
2017-11-29T00:35:10.045Z,99.99
2017-11-29T00:36:10.040Z,99.99
2017-11-29T00:37:10.030Z,99.99
2017-11-29T00:38:10.020Z,99.99
2017-11-29T00:39:10.009Z,99.99
2017-11-29T00:40:10.000Z,99.99
2017-11-29T00:41:09.985Z,99.99
2017-11-29T00:42:09.976Z,99.99
2017-11-29T00:43:09.969Z,99.99
2017-11-29T00:44:09.954Z,99.99
2017-11-29T00:45:09.949Z,99.99
2017-11-29T00:46:09.940Z,99.99
2017-11-29T00:47:09.935Z,99.99
2017-11-29T00:48:09.917Z,99.99
2017-11-29T00:49:09.908Z,99.99
2017-11-29T00:50:09.897Z,99.99
2017-11-29T00:51:09.886Z,99.99
2017-11-29T00:52:09.876Z,99.99
2017-11-29T00:53:09.862Z,99.99
2017-11-29T00:54:09.852Z,99.99
2017-11-29T00:55:09.841Z,99.99
2017-11-29T00:56:09.832Z,99.99
2017-11-29T00:57:09.821Z,99.99
2017-11-29T00:58:09.812Z,99.99
2017-11-29T00:59:09.800Z,99.99
2017-11-29T01:00:09.791Z,99.99
2017-11-29T01:01:09.785Z,99.99
2017-11-29T01:02:09.774Z,99.99
2017-11-29T01:03:09.764Z,99.99
2017-11-29T01:04:09.754Z,99.99
2017-11-29T01:05:09.744Z,99.99
2017-11-29T01:06:09.733Z,99.99
2017-11-29T01:07:09.722Z,99.99
2017-11-29T01:08:09.713Z,99.99
2017-11-29T01:09:09.697Z,99.99
2017-11-29T01:10:09.687Z,99.99
2017-11-29T01:11:09.677Z,99.99
2017-11-29T01:12:09.665Z,99.99
2017-11-29T01:13:09.655Z,99.99
2017-11-29T01:14:09.648Z,99.99
2017-11-29T01:15:09.635Z,99.99
2017-11-29T01:16:09.624Z,99.99
2017-11-29T01:17:09.618Z,99.99
2017-11-29T01:18:09.608Z,99.99
2017-11-29T01:19:09.597Z,99.99
2017-11-29T01:20:09.585Z,99.99
2017-11-29T01:21:09.574Z,99.99
2017-11-29T01:22:09.565Z,99.99
2017-11-29T01:23:09.553Z,99.99
2017-11-29T01:24:09.543Z,99.99
2017-11-29T01:25:09.528Z,99.99
2017-11-29T01:26:09.518Z,99.99
2017-11-29T01:27:09.517Z,99.99
2017-11-29T01:28:09.497Z,99.99
2017-11-29T01:29:09.487Z,99.99
2017-11-29T01:30:09.476Z,99.99
2017-11-29T01:31:09.465Z,99.99
2017-11-29T01:32:09.457Z,99.99
2017-11-29T01:33:09.448Z,99.99
2017-11-29T01:34:09.438Z,99.99
2017-11-29T01:35:09.427Z,99.99
2017-11-29T01:36:09.417Z,99.99
2017-11-29T01:37:09.406Z,99.99
2017-11-29T01:38:09.395Z,99.99
2017-11-29T01:39:09.385Z,99.99
2017-11-29T01:40:09.373Z,99.99
2017-11-29T01:41:09.359Z,99.99
2017-11-29T01:42:09.350Z,99.99
2017-11-29T01:43:09.337Z,99.99
2017-11-29T01:44:09.327Z,99.99
2017-11-29T01:45:09.321Z,99.99
2017-11-29T01:46:09.311Z,99.99
2017-11-29T01:47:09.299Z,99.99
2017-11-29T01:48:09.290Z,99.99
2017-11-29T01:49:09.275Z,99.99
2017-11-29T01:50:09.266Z,99.99
2017-11-29T01:51:09.253Z,99.99
2017-11-29T01:52:09.243Z,99.99
2017-11-29T01:53:09.233Z,99.99
2017-11-29T01:54:09.222Z,99.99
2017-11-29T01:55:09.212Z,99.99
2017-11-29T01:56:09.201Z,99.99
2017-11-29T01:57:09.194Z,99.99
2017-11-29T01:58:09.189Z,99.99
2017-11-29T01:59:09.172Z,99.99
2017-11-29T02:00:09.164Z,99.99
2017-11-29T02:01:09.153Z,99.99
2017-11-29T02:02:09.144Z,99.99
2017-11-29T02:03:09.130Z,99.99
2017-11-29T02:04:09.120Z,99.99
2017-11-29T02:05:09.108Z,99.99
2017-11-29T02:06:09.095Z,99.99
2017-11-29T02:07:09.084Z,99.99
2017-11-29T02:08:09.074Z,99.99
2017-11-29T02:09:09.063Z,99.99
2017-11-29T02:10:09.054Z,99.99
2017-11-29T02:11:09.043Z,99.99
2017-11-29T02:12:09.032Z,99.99
2017-11-29T02:13:09.026Z,99.99
2017-11-29T02:14:09.024Z,99.99
2017-11-29T02:15:09.006Z,99.99
2017-11-29T02:16:08.993Z,99.99
2017-11-29T02:17:08.984Z,99.99
2017-11-29T02:18:08.975Z,99.99
2017-11-29T02:19:08.962Z,99.99
2017-11-29T02:20:08.953Z,99.99
2017-11-29T02:21:08.937Z,99.99
2017-11-29T02:22:08.928Z,99.99
2017-11-29T02:23:08.919Z,99.99
2017-11-29T02:24:08.914Z,99.99
2017-11-29T02:25:08.895Z,99.99
2017-11-29T02:26:08.886Z,99.99
2017-11-29T02:27:08.875Z,99.99
2017-11-29T02:28:08.866Z,99.99
2017-11-29T02:29:08.860Z,99.99
2017-11-29T02:30:08.849Z,99.99
2017-11-29T02:31:08.837Z,99.99
2017-11-29T02:32:08.830Z,99.99
2017-11-29T02:33:08.818Z,99.99
2017-11-29T02:34:08.809Z,99.99
2017-11-29T02:35:08.797Z,99.99
2017-11-29T02:36:08.793Z,99.99
2017-11-29T02:37:08.776Z,99.99
2017-11-29T02:38:08.762Z,99.99
2017-11-29T02:39:08.759Z,99.99
2017-11-29T02:40:08.754Z,99.99
2017-11-29T02:41:08.731Z,99.99
2017-11-29T02:42:08.727Z,99.99
2017-11-29T02:43:08.717Z,99.99
2017-11-29T02:44:08.701Z,99.99
2017-11-29T02:45:08.695Z,99.99
2017-11-29T02:46:08.690Z,99.99
2017-11-29T02:47:08.676Z,99.99
2017-11-29T02:48:08.678Z,99.99
2017-11-29T02:49:08.659Z,99.99
2017-11-29T02:50:08.644Z,99.99
2017-11-29T02:51:08.634Z,99.99
2017-11-29T02:52:08.622Z,99.99
2017-11-29T02:53:08.608Z,99.99
2017-11-29T02:54:08.597Z,99.99
2017-11-29T02:55:08.587Z,99.99
2017-11-29T02:56:08.576Z,99.99
2017-11-29T02:57:08.567Z,99.99
2017-11-29T02:58:08.558Z,99.99
2017-11-29T02:59:08.548Z,99.99
2017-11-29T03:00:08.540Z,99.99
2017-11-29T03:01:08.531Z,99.99
2017-11-29T03:02:08.522Z,99.99
2017-11-29T03:03:08.510Z,99.99
2017-11-29T03:04:08.502Z,99.99
2017-11-29T03:05:08.491Z,99.99
2017-11-29T03:06:08.482Z,99.99
2017-11-29T03:07:08.486Z,99.99
2017-11-29T03:08:08.461Z,99.99
2017-11-29T03:09:08.448Z,99.99
2017-11-29T03:10:08.438Z,99.99
2017-11-29T03:11:08.428Z,99.99
2017-11-29T03:12:08.419Z,99.99
2017-11-29T03:13:08.408Z,99.99
2017-11-29T03:14:08.400Z,99.99
2017-11-29T03:15:08.386Z,99.99
2017-11-29T03:16:08.379Z,99.99
2017-11-29T03:17:08.373Z,99.99
2017-11-29T03:18:08.362Z,99.99
2017-11-29T03:19:08.352Z,99.99
2017-11-29T03:20:08.341Z,99.99
2017-11-29T03:21:08.332Z,99.99
2017-11-29T03:22:08.324Z,99.99
2017-11-29T03:23:08.312Z,99.99
2017-11-29T03:24:08.302Z,99.99
2017-11-29T03:25:08.289Z,99.99
2017-11-29T03:26:08.280Z,99.99
2017-11-29T03:27:08.268Z,99.99
2017-11-29T03:28:08.258Z,99.99
2017-11-29T03:29:08.248Z,99.99
2017-11-29T03:30:08.253Z,99.99
2017-11-29T03:31:08.231Z,99.99
2017-11-29T03:32:08.220Z,99.99
2017-11-29T03:33:08.214Z,99.99
2017-11-29T03:34:08.246Z,99.99
2017-11-29T03:35:08.194Z,99.99
2017-11-29T03:36:08.184Z,99.99
2017-11-29T03:37:08.174Z,99.99
2017-11-29T03:38:08.166Z,99.99
2017-11-29T03:39:08.154Z,99.99
2017-11-29T03:40:08.152Z,99.99
2017-11-29T03:41:08.130Z,99.99
2017-11-29T03:42:08.131Z,99.99
2017-11-29T03:43:08.111Z,99.99
2017-11-29T03:44:08.103Z,99.99
2017-11-29T03:45:08.092Z,99.99
2017-11-29T03:46:08.098Z,99.99
2017-11-29T03:47:08.072Z,99.99
2017-11-29T03:48:08.062Z,99.99
2017-11-29T03:49:08.055Z,99.99
2017-11-29T03:50:08.048Z,99.99
2017-11-29T03:51:08.036Z,99.99
2017-11-29T03:52:08.026Z,99.99
2017-11-29T03:53:08.020Z,99.99
2017-11-29T03:54:08.003Z,99.99
2017-11-29T03:55:07.992Z,99.99
2017-11-29T03:56:07.983Z,99.99
2017-11-29T03:57:07.979Z,99.99
2017-11-29T03:58:07.974Z,99.99
2017-11-29T03:59:07.958Z,99.99
2017-11-29T04:00:07.948Z,99.99
2017-11-29T04:01:07.939Z,99.99
2017-11-29T04:02:07.929Z,99.99
2017-11-29T04:03:07.925Z,99.99
2017-11-29T04:04:07.910Z,99.99
2017-11-29T04:05:07.895Z,99.99
2017-11-29T04:06:07.886Z,99.99
2017-11-29T04:07:07.876Z,99.99
2017-11-29T04:08:07.867Z,99.99
2017-11-29T04:09:07.857Z,99.99
2017-11-29T04:10:07.847Z,99.99
2017-11-29T04:11:07.837Z,99.99
2017-11-29T04:12:07.828Z,99.99
2017-11-29T04:13:07.822Z,99.99
2017-11-29T04:14:07.812Z,99.99
2017-11-29T04:15:07.802Z,99.99
2017-11-29T04:16:07.792Z,99.99
2017-11-29T04:17:07.783Z,99.99
2017-11-29T04:18:07.773Z,99.99
2017-11-29T04:19:07.763Z,99.99
2017-11-29T04:20:07.753Z,99.99
2017-11-29T04:21:07.743Z,99.99
2017-11-29T04:22:07.746Z,99.99
2017-11-29T04:23:07.721Z,99.99
2017-11-29T04:24:07.710Z,99.99
2017-11-29T04:25:07.701Z,99.99
2017-11-29T04:26:07.692Z,99.99
2017-11-29T04:27:07.681Z,99.99
2017-11-29T04:28:07.672Z,99.99
2017-11-29T04:29:07.666Z,99.99
2017-11-29T04:30:07.674Z,99.99
2017-11-29T04:31:07.647Z,99.99
2017-11-29T04:32:07.649Z,99.99
2017-11-29T04:33:07.627Z,99.99
2017-11-29T04:34:07.620Z,99.99
2017-11-29T04:35:07.607Z,99.99
2017-11-29T04:36:07.599Z,99.99
2017-11-29T04:37:07.583Z,99.99
2017-11-29T04:38:07.574Z,99.99
2017-11-29T04:39:07.565Z,99.99
2017-11-29T04:40:07.555Z,99.99
2017-11-29T04:41:07.544Z,99.99
2017-11-29T04:42:07.537Z,99.99
2017-11-29T04:43:07.526Z,99.99
2017-11-29T04:44:07.515Z,99.99
2017-11-29T04:45:07.510Z,99.99
2017-11-29T04:46:07.501Z,99.99
2017-11-29T04:47:07.490Z,99.99
2017-11-29T04:48:07.482Z,99.99
2017-11-29T04:49:07.473Z,99.99
2017-11-29T04:50:07.462Z,99.99
2017-11-29T04:51:07.451Z,99.99
2017-11-29T04:52:07.459Z,99.99
2017-11-29T04:53:07.429Z,99.99
2017-11-29T04:54:07.425Z,99.99
2017-11-29T04:55:07.410Z,99.99
2017-11-29T04:56:07.399Z,99.99
2017-11-29T04:57:07.393Z,99.99
2017-11-29T04:58:07.393Z,99.99
2017-11-29T04:59:07.373Z,99.99
2017-11-29T05:00:07.364Z,99.99
2017-11-29T05:01:07.357Z,99.99
2017-11-29T05:02:07.340Z,99.99
2017-11-29T05:03:07.330Z,99.99
2017-11-29T05:04:07.321Z,99.99
2017-11-29T05:05:07.312Z,99.99
2017-11-29T05:06:07.311Z,99.99
2017-11-29T05:07:07.292Z,99.99
2017-11-29T05:08:07.283Z,99.99
2017-11-29T05:09:07.277Z,99.99
2017-11-29T05:10:07.267Z,99.99
2017-11-29T05:11:07.258Z,99.99
2017-11-29T05:12:07.253Z,99.99
2017-11-29T05:13:07.236Z,99.99
2017-11-29T05:14:07.228Z,99.99
2017-11-29T05:15:07.217Z,99.99
2017-11-29T05:16:07.209Z,99.99
2017-11-29T05:17:07.193Z,99.99
2017-11-29T05:18:07.189Z,99.99
2017-11-29T05:19:07.173Z,99.99
2017-11-29T05:20:07.163Z,99.99
2017-11-29T05:21:07.154Z,99.99
2017-11-29T05:22:07.145Z,99.99
2017-11-29T05:23:07.134Z,99.99
2017-11-29T05:24:07.125Z,99.99
2017-11-29T05:25:07.118Z,99.99
2017-11-29T05:26:07.109Z,99.99
2017-11-29T05:27:07.104Z,99.99
2017-11-29T05:28:07.097Z,99.99
2017-11-29T05:29:07.083Z,99.99
2017-11-29T05:30:07.071Z,99.99
2017-11-29T05:31:07.060Z,99.99
2017-11-29T05:32:07.050Z,99.99
2017-11-29T05:33:07.035Z,99.99
2017-11-29T05:34:07.025Z,99.99
2017-11-29T05:35:07.014Z,99.99
2017-11-29T05:36:07.004Z,99.99
2017-11-29T05:37:06.995Z,99.99
2017-11-29T05:38:06.984Z,99.99
2017-11-29T05:39:06.977Z,99.99
2017-11-29T05:40:06.964Z,99.99
2017-11-29T05:41:06.966Z,99.99
2017-11-29T05:42:06.952Z,99.99
2017-11-29T05:43:06.937Z,99.99
2017-11-29T05:44:06.934Z,99.99
2017-11-29T05:45:06.918Z,99.99
2017-11-29T05:46:06.911Z,99.99
2017-11-29T05:47:06.901Z,99.99
2017-11-29T05:48:06.902Z,99.99
2017-11-29T05:49:06.882Z,99.99
2017-11-29T05:50:06.863Z,99.99
2017-11-29T05:51:06.855Z,99.99
2017-11-29T05:52:06.842Z,99.99
2017-11-29T05:53:06.835Z,99.99
2017-11-29T05:54:06.823Z,99.99
2017-11-29T05:55:06.812Z,99.99
2017-11-29T05:56:06.801Z,99.99
2017-11-29T05:57:06.797Z,99.99
2017-11-29T05:58:06.790Z,99.99
2017-11-29T05:59:06.783Z,99.99
2017-11-29T06:00:06.780Z,99.99
2017-11-29T06:01:06.752Z,99.99
2017-11-29T06:02:06.743Z,99.99
2017-11-29T06:03:06.733Z,99.99
2017-11-29T06:04:06.721Z,99.99
2017-11-29T06:05:06.720Z,99.99
2017-11-29T06:06:06.711Z,99.99
2017-11-29T06:07:06.696Z,99.99
2017-11-29T06:08:06.691Z,99.99
2017-11-29T06:09:06.681Z,99.99
2017-11-29T06:10:06.679Z,99.99
2017-11-29T06:11:06.660Z,99.99
2017-11-29T06:12:06.650Z,99.99
2017-11-29T06:13:06.630Z,99.99
2017-11-29T06:14:06.635Z,99.99
2017-11-29T06:15:06.612Z,99.99
2017-11-29T06:16:06.605Z,99.99
2017-11-29T06:17:06.599Z,99.99
2017-11-29T06:18:06.585Z,99.99
2017-11-29T06:19:06.570Z,99.99
2017-11-29T06:20:06.567Z,99.99
2017-11-29T06:21:06.560Z,99.99
2017-11-29T06:22:06.545Z,99.99
2017-11-29T06:23:06.534Z,99.99
2017-11-29T06:24:06.532Z,99.99
2017-11-29T06:25:06.515Z,99.99
2017-11-29T06:26:06.505Z,99.99
2017-11-29T06:27:06.502Z,99.99
2017-11-29T06:28:06.484Z,99.99
2017-11-29T06:29:06.479Z,99.99
2017-11-29T06:30:06.482Z,99.99
2017-11-29T06:31:06.452Z,99.99
2017-11-29T06:32:06.444Z,99.99
2017-11-29T06:33:06.434Z,99.99
2017-11-29T06:34:06.423Z,99.99
2017-11-29T06:35:06.413Z,99.99
2017-11-29T06:36:06.423Z,99.99
2017-11-29T06:37:06.396Z,99.99
2017-11-29T06:38:06.385Z,99.99
2017-11-29T06:39:06.373Z,99.99
2017-11-29T06:40:06.365Z,99.99
2017-11-29T06:41:06.355Z,99.99
2017-11-29T06:42:06.371Z,99.99
2017-11-29T06:43:06.343Z,99.99
2017-11-29T06:44:06.334Z,99.99
2017-11-29T06:45:06.312Z,99.99
2017-11-29T06:46:06.305Z,99.99
2017-11-29T06:47:06.292Z,99.99
2017-11-29T06:48:06.292Z,99.99
2017-11-29T06:49:06.269Z,99.99
2017-11-29T06:50:06.262Z,99.99
2017-11-29T06:51:06.252Z,99.99
2017-11-29T06:52:06.246Z,99.99
2017-11-29T06:53:06.233Z,99.99
2017-11-29T06:54:06.226Z,99.99
2017-11-29T06:55:06.212Z,99.99
2017-11-29T06:56:06.201Z,99.99
2017-11-29T06:57:06.222Z,99.99
2017-11-29T06:58:06.182Z,99.99
2017-11-29T06:59:06.172Z,99.99
2017-11-29T07:00:06.170Z,99.99
2017-11-29T07:01:06.149Z,99.99
2017-11-29T07:02:06.140Z,99.99
2017-11-29T07:03:06.133Z,99.99
2017-11-29T07:04:06.115Z,99.99
2017-11-29T07:05:06.111Z,99.99
2017-11-29T07:06:06.100Z,99.99
2017-11-29T07:07:06.092Z,99.99
2017-11-29T07:08:06.079Z,99.99
2017-11-29T07:09:06.069Z,99.99
2017-11-29T07:10:06.058Z,99.99
2017-11-29T07:11:06.045Z,99.99
2017-11-29T07:12:06.039Z,99.99
2017-11-29T07:13:06.024Z,99.99
2017-11-29T07:14:06.028Z,99.99
2017-11-29T07:15:06.003Z,99.99
2017-11-29T07:16:06.000Z,99.99
2017-11-29T07:17:05.991Z,99.99
2017-11-29T07:18:05.985Z,99.99
2017-11-29T07:19:05.972Z,99.99
2017-11-29T07:20:05.968Z,99.99
2017-11-29T07:21:05.952Z,99.99
2017-11-29T07:22:05.940Z,99.99
2017-11-29T07:23:05.926Z,99.99
2017-11-29T07:24:05.920Z,99.99
2017-11-29T07:25:05.909Z,99.99
2017-11-29T07:26:05.897Z,99.99
2017-11-29T07:27:05.887Z,99.99
2017-11-29T07:28:05.874Z,99.99
2017-11-29T07:29:05.860Z,99.99
2017-11-29T07:30:05.858Z,99.99
2017-11-29T07:31:05.840Z,99.99
2017-11-29T07:32:05.831Z,99.99
2017-11-29T07:33:05.826Z,99.99
2017-11-29T07:34:05.814Z,99.99
2017-11-29T07:35:05.805Z,99.99
2017-11-29T07:36:05.801Z,99.99
2017-11-29T07:37:05.781Z,99.99
2017-11-29T07:38:05.777Z,99.99
2017-11-29T07:39:05.766Z,99.99
2017-11-29T07:40:05.754Z,99.99
2017-11-29T07:41:05.736Z,99.99
2017-11-29T07:42:05.726Z,99.99
2017-11-29T07:43:05.715Z,99.99
2017-11-29T07:44:05.706Z,99.99
2017-11-29T07:45:05.695Z,99.99
2017-11-29T07:46:05.685Z,99.99
2017-11-29T07:47:05.673Z,99.99
2017-11-29T07:48:05.663Z,99.99
2017-11-29T07:49:05.657Z,99.99
2017-11-29T07:50:05.650Z,99.99
2017-11-29T07:51:05.635Z,99.99
2017-11-29T07:52:05.629Z,99.99
2017-11-29T07:53:05.616Z,99.99
2017-11-29T07:54:05.608Z,99.99
2017-11-29T07:55:05.595Z,99.99
2017-11-29T07:56:05.586Z,99.99
2017-11-29T07:57:05.571Z,99.99
2017-11-29T07:58:05.562Z,99.99
2017-11-29T07:59:05.552Z,99.99
2017-11-29T08:00:05.541Z,99.99
2017-11-29T08:01:05.530Z,99.99
2017-11-29T08:02:05.521Z,99.99
2017-11-29T08:03:05.514Z,99.99
2017-11-29T08:04:05.517Z,99.99
2017-11-29T08:05:05.496Z,99.99
2017-11-29T08:06:05.486Z,99.99
2017-11-29T08:07:05.473Z,99.99
2017-11-29T08:08:05.469Z,99.99
2017-11-29T08:09:05.466Z,99.99
2017-11-29T08:10:05.441Z,99.99
2017-11-29T08:11:05.429Z,99.99
2017-11-29T08:12:05.420Z,99.99
2017-11-29T08:13:05.415Z,99.99
2017-11-29T08:14:05.404Z,99.99
2017-11-29T08:15:05.394Z,99.99
2017-11-29T08:16:05.383Z,99.99
2017-11-29T08:17:05.374Z,99.99
2017-11-29T08:18:05.365Z,99.99
2017-11-29T08:19:05.356Z,99.99
2017-11-29T08:20:05.346Z,99.99
2017-11-29T08:21:05.342Z,99.99
2017-11-29T08:22:05.322Z,99.99
2017-11-29T08:23:05.314Z,99.99
2017-11-29T08:24:05.305Z,99.99
2017-11-29T08:25:05.296Z,99.99
2017-11-29T08:26:05.314Z,99.99
2017-11-29T08:27:05.278Z,99.64
2017-11-29T08:28:05.282Z,99.97
2017-11-29T08:29:05.273Z,99.99
2017-11-29T08:30:05.257Z,99.30
2017-11-29T08:31:05.247Z,98.73
2017-11-29T08:32:05.240Z,98.83
2017-11-29T08:33:05.236Z,98.83
2017-11-29T08:34:05.222Z,98.73
2017-11-29T08:35:05.215Z,99.11
2017-11-29T08:36:05.207Z,99.30
2017-11-29T08:37:05.193Z,99.30
2017-11-29T08:38:05.185Z,98.64
2017-11-29T08:39:05.177Z,97.60
2017-11-29T08:40:05.168Z,97.97
2017-11-29T08:41:05.169Z,97.60
2017-11-29T08:42:05.153Z,97.69
2017-11-29T08:43:05.144Z,97.41
2017-11-29T08:44:05.135Z,97.78
2017-11-29T08:45:05.135Z,98.16
2017-11-29T08:46:05.130Z,98.64
2017-11-29T08:47:05.121Z,98.35
2017-11-29T08:48:05.112Z,97.88
2017-11-29T08:49:05.101Z,97.41
2017-11-29T08:50:05.094Z,97.17
2017-11-29T08:51:05.084Z,97.92
2017-11-29T08:52:05.075Z,97.55
2017-11-29T08:53:05.065Z,97.83
2017-11-29T08:54:05.055Z,98.49
2017-11-29T08:55:05.046Z,99.16
2017-11-29T08:56:05.043Z,99.54
2017-11-29T08:57:05.037Z,99.02
2017-11-29T08:58:05.026Z,99.30
2017-11-29T08:59:05.013Z,99.02
2017-11-29T09:00:05.006Z,99.68
2017-11-29T09:01:05.005Z,99.40
2017-11-29T09:02:04.996Z,99.77
2017-11-29T09:03:04.986Z,99.02
2017-11-29T09:04:04.976Z,98.73
2017-11-29T09:05:04.971Z,98.26
2017-11-29T09:06:04.962Z,98.35
2017-11-29T09:07:04.953Z,97.97
2017-11-29T09:08:04.946Z,97.02
2017-11-29T09:09:04.933Z,97.17
2017-11-29T09:10:04.926Z,97.22
2017-11-29T09:11:04.916Z,97.41
2017-11-29T09:12:04.909Z,97.97
2017-11-29T09:13:04.907Z,97.45
2017-11-29T09:14:04.898Z,97.31
2017-11-29T09:15:04.895Z,97.12
2017-11-29T09:16:04.891Z,96.26
2017-11-29T09:17:04.871Z,96.08
2017-11-29T09:18:04.867Z,96.36
2017-11-29T09:19:04.855Z,96.36
2017-11-29T09:20:04.848Z,96.26
2017-11-29T09:21:04.845Z,96.55
2017-11-29T09:22:04.833Z,96.97
2017-11-29T09:23:04.825Z,96.31
2017-11-29T09:24:04.824Z,96.88
2017-11-29T09:25:04.813Z,97.36
2017-11-29T09:26:04.808Z,97.55
2017-11-29T09:27:04.810Z,97.36
2017-11-29T09:28:04.790Z,97.36
2017-11-29T09:29:04.795Z,97.74
2017-11-29T09:30:04.780Z,97.78
2017-11-29T09:31:04.766Z,98.30
2017-11-29T09:32:04.763Z,99.16
2017-11-29T09:33:04.746Z,99.35
2017-11-29T09:34:04.738Z,99.20
2017-11-29T09:35:04.730Z,99.20
2017-11-29T09:36:04.722Z,99.30
2017-11-29T09:37:04.715Z,99.11
2017-11-29T09:38:04.707Z,99.01
2017-11-29T09:39:04.698Z,99.11
2017-11-29T09:40:04.691Z,99.58
2017-11-29T09:41:04.688Z,99.82
2017-11-29T09:42:04.680Z,99.73
2017-11-29T09:43:04.672Z,99.99
2017-11-29T09:44:04.663Z,99.91
2017-11-29T09:45:04.657Z,99.99
2017-11-29T09:46:04.647Z,99.99
2017-11-29T09:47:04.641Z,99.21
2017-11-29T09:48:04.633Z,98.73
2017-11-29T09:49:04.620Z,97.69
2017-11-29T09:50:04.611Z,98.64
2017-11-29T09:51:04.604Z,98.92
2017-11-29T09:52:04.595Z,97.88
2017-11-29T09:53:04.611Z,97.31
2017-11-29T09:54:04.581Z,97.97
2017-11-29T09:55:04.572Z,97.78
2017-11-29T09:56:04.567Z,97.78
2017-11-29T09:57:04.561Z,97.50
2017-11-29T09:58:04.555Z,97.31
2017-11-29T09:59:04.548Z,97.41
2017-11-29T10:00:04.539Z,96.79
2017-11-29T10:01:04.539Z,96.41
2017-11-29T10:02:04.526Z,96.12
2017-11-29T10:03:04.517Z,96.41
2017-11-29T10:04:04.511Z,95.84
2017-11-29T10:05:04.499Z,96.26
2017-11-29T10:06:04.492Z,95.75
2017-11-29T10:07:04.483Z,94.46
2017-11-29T10:08:04.477Z,93.89
2017-11-29T10:09:04.470Z,93.37
2017-11-29T10:10:04.465Z,92.90
2017-11-29T10:11:04.454Z,93.08
2017-11-29T10:12:04.448Z,93.18
2017-11-29T10:13:04.445Z,94.03
2017-11-29T10:14:04.440Z,94.79
2017-11-29T10:15:04.431Z,95.27
2017-11-29T10:16:04.428Z,94.60
2017-11-29T10:17:04.414Z,94.60
2017-11-29T10:18:04.410Z,94.84
2017-11-29T10:19:04.399Z,94.56
2017-11-29T10:20:04.392Z,95.12
2017-11-29T10:21:04.508Z,95.08
2017-11-29T10:22:04.382Z,95.46
2017-11-29T10:23:04.374Z,95.65
2017-11-29T10:24:04.368Z,95.08
2017-11-29T10:25:04.361Z,94.70
2017-11-29T10:26:04.353Z,95.03
2017-11-29T10:27:04.347Z,93.99
2017-11-29T10:28:04.340Z,93.94
2017-11-29T10:29:04.329Z,93.13
2017-11-29T10:30:04.323Z,93.13
2017-11-29T10:31:04.318Z,93.27
2017-11-29T10:32:04.307Z,92.03
2017-11-29T10:33:04.302Z,91.80
2017-11-29T10:34:04.296Z,91.22
2017-11-29T10:35:04.289Z,89.80
2017-11-29T10:36:04.281Z,89.14
2017-11-29T10:37:04.281Z,88.23
2017-11-29T10:38:04.276Z,88.28
2017-11-29T10:39:04.268Z,88.85
2017-11-29T10:40:04.261Z,89.23
2017-11-29T10:41:04.256Z,89.14
2017-11-29T10:42:04.252Z,89.86
2017-11-29T10:43:04.243Z,90.05
2017-11-29T10:44:04.241Z,90.80
2017-11-29T10:45:04.229Z,91.99
2017-11-29T10:46:04.226Z,91.28
2017-11-29T10:47:04.218Z,90.80
2017-11-29T10:48:04.211Z,90.23
2017-11-29T10:49:04.209Z,89.75
2017-11-29T10:50:04.202Z,89.66
2017-11-29T10:51:04.195Z,89.37
2017-11-29T10:52:04.189Z,89.18
2017-11-29T10:53:04.188Z,89.47
2017-11-29T10:54:04.182Z,89.56
2017-11-29T10:55:04.177Z,89.56
2017-11-29T10:56:04.171Z,89.66
2017-11-29T10:57:04.166Z,90.23
2017-11-29T10:58:04.171Z,89.56
2017-11-29T10:59:04.153Z,89.66
2017-11-29T11:00:04.154Z,89.14
2017-11-29T11:01:04.139Z,89.04
2017-11-29T11:02:04.133Z,89.47
2017-11-29T11:03:04.129Z,89.09
2017-11-29T11:04:04.121Z,88.61
2017-11-29T11:05:04.115Z,88.42
2017-11-29T11:06:04.112Z,88.04
2017-11-29T11:07:04.105Z,88.04
2017-11-29T11:08:04.099Z,88.47
2017-11-29T11:09:04.098Z,88.67
2017-11-29T11:10:04.094Z,88.95
2017-11-29T11:11:04.087Z,89.61
2017-11-29T11:12:04.082Z,89.76
2017-11-29T11:13:04.077Z,90.33
2017-11-29T11:14:04.072Z,90.66
2017-11-29T11:15:04.070Z,90.66
2017-11-29T11:16:04.059Z,90.85
2017-11-29T11:17:04.051Z,90.85
2017-11-29T11:18:04.044Z,91.23
2017-11-29T11:19:04.042Z,90.75
2017-11-29T11:20:04.032Z,90.52
2017-11-29T11:21:04.026Z,90.99
2017-11-29T11:22:04.019Z,90.23
2017-11-29T11:23:04.014Z,90.04
2017-11-29T11:24:04.008Z,89.56
2017-11-29T11:25:04.007Z,89.75
2017-11-29T11:26:04.002Z,89.00
2017-11-29T11:27:03.993Z,89.00
2017-11-29T11:28:03.988Z,88.61
2017-11-29T11:29:03.984Z,88.23
2017-11-29T11:30:03.977Z,88.90
2017-11-29T11:31:03.971Z,88.71
2017-11-29T11:32:03.967Z,88.71
2017-11-29T11:33:03.956Z,88.71
2017-11-29T11:34:03.951Z,88.52
2017-11-29T11:35:03.942Z,89.09
2017-11-29T11:36:03.936Z,88.71
2017-11-29T11:37:03.929Z,87.95
2017-11-29T11:38:03.927Z,88.80
2017-11-29T11:39:03.917Z,88.61
2017-11-29T11:40:03.913Z,88.61
2017-11-29T11:41:03.913Z,89.47
2017-11-29T11:42:03.903Z,89.89
2017-11-29T11:43:03.896Z,89.09
2017-11-29T11:44:03.897Z,89.75
2017-11-29T11:45:03.885Z,89.18
2017-11-29T11:46:03.879Z,88.42
2017-11-29T11:47:03.871Z,88.80
2017-11-29T11:48:03.866Z,89.85
2017-11-29T11:49:03.861Z,89.23
2017-11-29T11:50:03.853Z,89.09
2017-11-29T11:51:03.858Z,88.09
2017-11-29T11:52:03.838Z,88.56
2017-11-29T11:53:03.831Z,89.14
2017-11-29T11:54:03.824Z,88.75
2017-11-29T11:55:03.817Z,89.23
2017-11-29T11:56:03.817Z,89.61
2017-11-29T11:57:03.811Z,89.47
2017-11-29T11:58:03.804Z,88.61
2017-11-29T11:59:03.798Z,88.23
2017-11-29T12:00:03.941Z,87.85
2017-11-29T12:01:03.785Z,88.52
2017-11-29T12:02:03.780Z,88.33
2017-11-29T12:03:03.772Z,88.04
2017-11-29T12:04:03.766Z,88.23
2017-11-29T12:05:03.757Z,88.52
2017-11-29T12:06:03.750Z,89.37
2017-11-29T12:07:03.742Z,89.66
2017-11-29T12:08:03.739Z,89.85
2017-11-29T12:09:03.730Z,89.09
2017-11-29T12:10:03.724Z,88.52
2017-11-29T12:11:03.722Z,88.90
2017-11-29T12:12:03.713Z,88.71
2017-11-29T12:13:03.709Z,88.90
2017-11-29T12:14:03.704Z,88.52
2017-11-29T12:15:03.698Z,88.04
2017-11-29T12:16:03.691Z,88.33
2017-11-29T12:17:03.691Z,88.61
2017-11-29T12:18:03.678Z,89.47
2017-11-29T12:19:03.670Z,88.71
2017-11-29T12:20:03.668Z,88.52
2017-11-29T12:21:03.655Z,88.33
2017-11-29T12:22:03.648Z,87.38
2017-11-29T12:23:03.660Z,87.85
2017-11-29T12:24:03.632Z,87.95
2017-11-29T12:25:03.633Z,87.95
2017-11-29T12:26:03.627Z,88.04
2017-11-29T12:27:03.623Z,87.85
2017-11-29T12:28:03.611Z,87.66
2017-11-29T12:29:03.611Z,87.47
2017-11-29T12:30:03.595Z,87.38
2017-11-29T12:31:03.586Z,87.28
2017-11-29T12:32:03.588Z,87.38
2017-11-29T12:33:03.585Z,87.38
2017-11-29T12:34:03.579Z,87.19
2017-11-29T12:35:03.561Z,87.28
2017-11-29T12:36:03.556Z,86.76
2017-11-29T12:37:03.563Z,86.10
2017-11-29T12:38:03.547Z,86.38
2017-11-29T12:39:03.537Z,86.57
2017-11-29T12:40:03.550Z,86.67
2017-11-29T12:41:03.524Z,87.52
2017-11-29T12:42:03.519Z,87.34
2017-11-29T12:43:03.510Z,87.14
2017-11-29T12:44:03.504Z,87.43
2017-11-29T12:45:03.494Z,87.34
2017-11-29T12:46:03.486Z,87.24
2017-11-29T12:47:03.478Z,87.14
2017-11-29T12:48:03.473Z,88.57
2017-11-29T12:49:03.465Z,89.33
2017-11-29T12:50:03.459Z,90.19
2017-11-29T12:51:03.453Z,90.56
2017-11-29T12:52:03.444Z,90.70